sensor_id;sensor_type;location;lat;lon;timestamp;temperature;humidity
25906;DHT22;13713;52.552;13.204;2023-03-31T00:01:47;17.70;70.40
25906;DHT22;13713;52.552;13.204;2023-03-31T00:04:13;17.70;70.40
25906;DHT22;13713;52.552;13.204;2023-03-31T00:06:40;17.70;70.40
25906;DHT22;13713;52.552;13.204;2023-03-31T00:09:12;17.70;70.40
25906;DHT22;13713;52.552;13.204;2023-03-31T00:11:40;17.60;70.30
25906;DHT22;13713;52.552;13.204;2023-03-31T00:14:07;17.70;70.40
25906;DHT22;13713;52.552;13.204;2023-03-31T00:16:36;17.60;70.30
25906;DHT22;13713;52.552;13.204;2023-03-31T00:19:03;17.70;70.40
25906;DHT22;13713;52.552;13.204;2023-03-31T00:21:29;17.60;70.30
25906;DHT22;13713;52.552;13.204;2023-03-31T00:24:04;17.60;70.30
25906;DHT22;13713;52.552;13.204;2023-03-31T00:26:31;17.60;70.30
25906;DHT22;13713;52.552;13.204;2023-03-31T00:28:58;17.70;70.40
25906;DHT22;13713;52.552;13.204;2023-03-31T00:31:25;17.60;70.30
25906;DHT22;13713;52.552;13.204;2023-03-31T00:33:53;17.60;70.30
25906;DHT22;13713;52.552;13.204;2023-03-31T00:36:19;17.60;70.30
25906;DHT22;13713;52.552;13.204;2023-03-31T00:38:53;17.60;70.40
25906;DHT22;13713;52.552;13.204;2023-03-31T00:41:18;17.60;70.30
25906;DHT22;13713;52.552;13.204;2023-03-31T00:44:12;17.60;70.40
25906;DHT22;13713;52.552;13.204;2023-03-31T00:47:09;17.60;70.40
25906;DHT22;13713;52.552;13.204;2023-03-31T00:52:10;17.60;70.50
25906;DHT22;13713;52.552;13.204;2023-03-31T00:54:39;17.60;70.40
25906;DHT22;13713;52.552;13.204;2023-03-31T00:57:06;17.60;70.40
25906;DHT22;13713;52.552;13.204;2023-03-31T00:59:36;17.60;71.20
25906;DHT22;13713;52.552;13.204;2023-03-31T01:02:03;17.60;70.40
25906;DHT22;13713;52.552;13.204;2023-03-31T01:04:37;17.60;70.50
25906;DHT22;13713;52.552;13.204;2023-03-31T01:07:15;17.60;70.50
25906;DHT22;13713;52.552;13.204;2023-03-31T01:09:44;17.50;70.50
25906;DHT22;13713;52.552;13.204;2023-03-31T01:12:15;17.50;70.40
25906;DHT22;13713;52.552;13.204;2023-03-31T01:14:42;17.60;70.50
25906;DHT22;13713;52.552;13.204;2023-03-31T01:17:08;17.50;70.40
25906;DHT22;13713;52.552;13.204;2023-03-31T01:28:30;17.50;70.50
25906;DHT22;13713;52.552;13.204;2023-03-31T01:31:24;17.50;70.40
25906;DHT22;13713;52.552;13.204;2023-03-31T01:51:56;17.50;70.50
25906;DHT22;13713;52.552;13.204;2023-03-31T01:54:16;17.50;70.50
25906;DHT22;13713;52.552;13.204;2023-03-31T01:57:53;17.50;70.50
25906;DHT22;13713;52.552;13.204;2023-03-31T02:00:10;17.50;70.50
25906;DHT22;13713;52.552;13.204;2023-03-31T02:05:16;17.50;70.50
25906;DHT22;13713;52.552;13.204;2023-03-31T02:07:48;17.40;70.40
25906;DHT22;13713;52.552;13.204;2023-03-31T02:10:17;17.40;70.40
25906;DHT22;13713;52.552;13.204;2023-03-31T02:12:45;17.40;70.40
25906;DHT22;13713;52.552;13.204;2023-03-31T02:15:18;17.40;70.80
25906;DHT22;13713;52.552;13.204;2023-03-31T02:17:48;17.40;70.40
25906;DHT22;13713;52.552;13.204;2023-03-31T02:20:18;17.40;70.40
25906;DHT22;13713;52.552;13.204;2023-03-31T02:22:50;17.40;70.40
25906;DHT22;13713;52.552;13.204;2023-03-31T02:25:20;17.40;70.40
25906;DHT22;13713;52.552;13.204;2023-03-31T02:27:56;17.40;70.40
25906;DHT22;13713;52.552;13.204;2023-03-31T02:30:31;17.40;70.40
25906;DHT22;13713;52.552;13.204;2023-03-31T02:32:58;17.40;70.40
25906;DHT22;13713;52.552;13.204;2023-03-31T02:35:24;17.40;70.40
25906;DHT22;13713;52.552;13.204;2023-03-31T02:37:51;17.40;70.40
25906;DHT22;13713;52.552;13.204;2023-03-31T02:40:20;17.40;70.40
25906;DHT22;13713;52.552;13.204;2023-03-31T02:42:47;17.40;70.40
25906;DHT22;13713;52.552;13.204;2023-03-31T02:45:37;17.40;70.40
25906;DHT22;13713;52.552;13.204;2023-03-31T02:48:05;17.40;70.40
25906;DHT22;13713;52.552;13.204;2023-03-31T02:50:38;17.40;70.40
25906;DHT22;13713;52.552;13.204;2023-03-31T02:53:36;17.40;70.40
25906;DHT22;13713;52.552;13.204;2023-03-31T02:59:00;17.40;70.40
25906;DHT22;13713;52.552;13.204;2023-03-31T03:01:50;17.40;70.40
25906;DHT22;13713;52.552;13.204;2023-03-31T03:16:43;17.30;70.30
25906;DHT22;13713;52.552;13.204;2023-03-31T03:18:51;17.30;71.10
25906;DHT22;13713;52.552;13.204;2023-03-31T03:21:17;17.40;70.40
25906;DHT22;13713;52.552;13.204;2023-03-31T03:23:43;17.30;70.40
25906;DHT22;13713;52.552;13.204;2023-03-31T03:26:08;17.30;70.30
25906;DHT22;13713;52.552;13.204;2023-03-31T03:28:34;17.30;70.30
25906;DHT22;13713;52.552;13.204;2023-03-31T03:31:00;17.30;70.30
25906;DHT22;13713;52.552;13.204;2023-03-31T03:33:25;17.30;70.30
25906;DHT22;13713;52.552;13.204;2023-03-31T03:35:51;17.30;70.30
25906;DHT22;13713;52.552;13.204;2023-03-31T03:38:17;17.30;70.30
25906;DHT22;13713;52.552;13.204;2023-03-31T03:40:42;17.30;70.40
25906;DHT22;13713;52.552;13.204;2023-03-31T03:43:08;17.30;70.40
25906;DHT22;13713;52.552;13.204;2023-03-31T03:45:34;17.40;70.40
25906;DHT22;13713;52.552;13.204;2023-03-31T03:47:59;17.30;70.40
25906;DHT22;13713;52.552;13.204;2023-03-31T03:50:25;17.30;70.40
25906;DHT22;13713;52.552;13.204;2023-03-31T03:52:51;17.30;70.40
25906;DHT22;13713;52.552;13.204;2023-03-31T03:55:16;17.40;70.30
25906;DHT22;13713;52.552;13.204;2023-03-31T03:57:42;17.40;70.30
25906;DHT22;13713;52.552;13.204;2023-03-31T04:00:08;17.40;70.30
25906;DHT22;13713;52.552;13.204;2023-03-31T04:02:38;17.40;70.30
25906;DHT22;13713;52.552;13.204;2023-03-31T04:05:04;17.40;70.20
25906;DHT22;13713;52.552;13.204;2023-03-31T04:07:30;17.30;70.20
25906;DHT22;13713;52.552;13.204;2023-03-31T04:09:55;17.40;70.30
25906;DHT22;13713;52.552;13.204;2023-03-31T04:12:21;17.30;70.20
25906;DHT22;13713;52.552;13.204;2023-03-31T04:14:47;17.40;70.20
25906;DHT22;13713;52.552;13.204;2023-03-31T04:17:12;17.40;70.30
25906;DHT22;13713;52.552;13.204;2023-03-31T04:19:40;17.40;70.20
25906;DHT22;13713;52.552;13.204;2023-03-31T04:22:07;17.40;70.20
25906;DHT22;13713;52.552;13.204;2023-03-31T04:24:36;17.40;70.20
25906;DHT22;13713;52.552;13.204;2023-03-31T04:27:03;17.40;70.20
25906;DHT22;13713;52.552;13.204;2023-03-31T04:29:32;17.40;70.20
25906;DHT22;13713;52.552;13.204;2023-03-31T04:31:59;17.50;70.30
25906;DHT22;13713;52.552;13.204;2023-03-31T04:34:25;17.40;70.20
25906;DHT22;13713;52.552;13.204;2023-03-31T04:36:59;17.50;70.30
25906;DHT22;13713;52.552;13.204;2023-03-31T04:39:27;17.40;70.20
25906;DHT22;13713;52.552;13.204;2023-03-31T04:41:56;17.50;70.20
25906;DHT22;13713;52.552;13.204;2023-03-31T04:44:22;17.50;70.30
25906;DHT22;13713;52.552;13.204;2023-03-31T04:46:48;17.50;70.30
25906;DHT22;13713;52.552;13.204;2023-03-31T04:49:14;17.50;70.20
25906;DHT22;13713;52.552;13.204;2023-03-31T04:51:39;17.50;70.30
25906;DHT22;13713;52.552;13.204;2023-03-31T04:54:05;17.50;70.30
25906;DHT22;13713;52.552;13.204;2023-03-31T04:56:31;17.50;70.20
25906;DHT22;13713;52.552;13.204;2023-03-31T04:58:57;17.50;70.30
25906;DHT22;13713;52.552;13.204;2023-03-31T05:01:22;17.50;70.20
25906;DHT22;13713;52.552;13.204;2023-03-31T05:03:48;17.50;70.20
25906;DHT22;13713;52.552;13.204;2023-03-31T05:06:15;17.50;70.20
25906;DHT22;13713;52.552;13.204;2023-03-31T05:08:41;17.50;70.30
25906;DHT22;13713;52.552;13.204;2023-03-31T05:11:06;17.50;70.20
25906;DHT22;13713;52.552;13.204;2023-03-31T05:13:32;17.60;70.30
25906;DHT22;13713;52.552;13.204;2023-03-31T05:15:58;17.60;70.20
25906;DHT22;13713;52.552;13.204;2023-03-31T05:18:23;17.60;70.20
25906;DHT22;13713;52.552;13.204;2023-03-31T05:20:49;17.60;70.20
25906;DHT22;13713;52.552;13.204;2023-03-31T05:23:15;17.60;70.20
25906;DHT22;13713;52.552;13.204;2023-03-31T05:25:40;17.60;70.20
25906;DHT22;13713;52.552;13.204;2023-03-31T05:28:07;17.60;70.20
25906;DHT22;13713;52.552;13.204;2023-03-31T05:30:33;17.70;70.30
25906;DHT22;13713;52.552;13.204;2023-03-31T05:32:59;17.70;70.30
25906;DHT22;13713;52.552;13.204;2023-03-31T05:35:25;17.70;70.20
25906;DHT22;13713;52.552;13.204;2023-03-31T05:37:51;17.70;70.20
25906;DHT22;13713;52.552;13.204;2023-03-31T05:40:16;17.70;70.20
25906;DHT22;13713;52.552;13.204;2023-03-31T05:42:42;17.80;70.20
25906;DHT22;13713;52.552;13.204;2023-03-31T05:45:08;17.80;70.10
25906;DHT22;13713;52.552;13.204;2023-03-31T05:47:34;17.80;70.10
25906;DHT22;13713;52.552;13.204;2023-03-31T05:50:00;17.80;70.00
25906;DHT22;13713;52.552;13.204;2023-03-31T05:52:26;17.80;70.00
25906;DHT22;13713;52.552;13.204;2023-03-31T05:54:52;17.70;70.00
25906;DHT22;13713;52.552;13.204;2023-03-31T05:57:17;17.90;70.00
25906;DHT22;13713;52.552;13.204;2023-03-31T05:59:43;17.90;70.00
25906;DHT22;13713;52.552;13.204;2023-03-31T06:02:12;17.90;69.90
25906;DHT22;13713;52.552;13.204;2023-03-31T06:04:37;17.90;69.90
25906;DHT22;13713;52.552;13.204;2023-03-31T06:07:04;18.00;69.90
25906;DHT22;13713;52.552;13.204;2023-03-31T06:09:30;18.00;69.90
25906;DHT22;13713;52.552;13.204;2023-03-31T06:11:56;18.00;69.80
25906;DHT22;13713;52.552;13.204;2023-03-31T06:14:22;18.00;69.80
25906;DHT22;13713;52.552;13.204;2023-03-31T06:16:47;18.00;69.80
25906;DHT22;13713;52.552;13.204;2023-03-31T06:19:14;18.10;69.80
25906;DHT22;13713;52.552;13.204;2023-03-31T06:21:40;18.10;69.80
25906;DHT22;13713;52.552;13.204;2023-03-31T06:24:07;18.10;69.70
25906;DHT22;13713;52.552;13.204;2023-03-31T06:26:33;18.10;69.70
25906;DHT22;13713;52.552;13.204;2023-03-31T06:28:59;18.10;69.70
25906;DHT22;13713;52.552;13.204;2023-03-31T06:31:25;18.10;69.60
25906;DHT22;13713;52.552;13.204;2023-03-31T06:33:51;18.20;69.70
25906;DHT22;13713;52.552;13.204;2023-03-31T06:36:18;18.20;69.60
25906;DHT22;13713;52.552;13.204;2023-03-31T06:38:45;18.20;69.60
25906;DHT22;13713;52.552;13.204;2023-03-31T06:41:12;18.30;69.60
25906;DHT22;13713;52.552;13.204;2023-03-31T06:43:38;18.30;69.40
25906;DHT22;13713;52.552;13.204;2023-03-31T06:46:04;18.30;69.30
25906;DHT22;13713;52.552;13.204;2023-03-31T06:48:30;18.40;69.30
25906;DHT22;13713;52.552;13.204;2023-03-31T06:50:59;18.40;69.20
25906;DHT22;13713;52.552;13.204;2023-03-31T06:53:25;18.50;69.10
25906;DHT22;13713;52.552;13.204;2023-03-31T06:55:51;18.60;69.10
25906;DHT22;13713;52.552;13.204;2023-03-31T06:58:17;18.60;68.90
25906;DHT22;13713;52.552;13.204;2023-03-31T07:00:43;18.60;68.90
25906;DHT22;13713;52.552;13.204;2023-03-31T07:03:11;18.60;68.80
25906;DHT22;13713;52.552;13.204;2023-03-31T07:05:37;18.70;68.70
25906;DHT22;13713;52.552;13.204;2023-03-31T07:08:02;18.80;68.70
25906;DHT22;13713;52.552;13.204;2023-03-31T07:10:30;18.80;68.70
25906;DHT22;13713;52.552;13.204;2023-03-31T07:12:56;18.70;68.50
25906;DHT22;13713;52.552;13.204;2023-03-31T07:15:24;18.80;68.60
25906;DHT22;13713;52.552;13.204;2023-03-31T07:17:50;18.70;68.50
25906;DHT22;13713;52.552;13.204;2023-03-31T07:20:18;18.80;68.50
25906;DHT22;13713;52.552;13.204;2023-03-31T07:22:45;18.80;68.50
25906;DHT22;13713;52.552;13.204;2023-03-31T07:25:14;18.80;68.50
25906;DHT22;13713;52.552;13.204;2023-03-31T07:27:40;18.80;68.40
25906;DHT22;13713;52.552;13.204;2023-03-31T07:30:08;18.80;68.50
25906;DHT22;13713;52.552;13.204;2023-03-31T07:32:34;18.80;68.50
25906;DHT22;13713;52.552;13.204;2023-03-31T07:35:05;18.80;68.50
25906;DHT22;13713;52.552;13.204;2023-03-31T07:37:50;18.80;68.70
25906;DHT22;13713;52.552;13.204;2023-03-31T07:40:24;18.80;68.70
25906;DHT22;13713;52.552;13.204;2023-03-31T07:42:51;18.80;68.70
25906;DHT22;13713;52.552;13.204;2023-03-31T07:45:19;18.80;68.80
25906;DHT22;13713;52.552;13.204;2023-03-31T07:47:45;18.90;68.90
25906;DHT22;13713;52.552;13.204;2023-03-31T07:50:12;18.90;68.90
25906;DHT22;13713;52.552;13.204;2023-03-31T07:52:38;18.90;68.90
25906;DHT22;13713;52.552;13.204;2023-03-31T07:55:05;18.90;68.90
25906;DHT22;13713;52.552;13.204;2023-03-31T07:57:32;18.90;68.90
25906;DHT22;13713;52.552;13.204;2023-03-31T07:59:58;18.90;68.90
25906;DHT22;13713;52.552;13.204;2023-03-31T08:02:23;18.90;68.90
25906;DHT22;13713;52.552;13.204;2023-03-31T08:04:49;18.90;68.90
25906;DHT22;13713;52.552;13.204;2023-03-31T08:07:15;18.90;69.00
25906;DHT22;13713;52.552;13.204;2023-03-31T08:09:43;19.00;69.10
25906;DHT22;13713;52.552;13.204;2023-03-31T08:12:09;19.00;69.10
25906;DHT22;13713;52.552;13.204;2023-03-31T08:14:35;19.00;69.20
25906;DHT22;13713;52.552;13.204;2023-03-31T08:17:01;19.00;69.40
25906;DHT22;13713;52.552;13.204;2023-03-31T08:19:26;19.00;69.40
25906;DHT22;13713;52.552;13.204;2023-03-31T08:21:53;19.00;69.30
25906;DHT22;13713;52.552;13.204;2023-03-31T08:24:19;19.00;69.50
25906;DHT22;13713;52.552;13.204;2023-03-31T08:26:45;19.00;69.40
25906;DHT22;13713;52.552;13.204;2023-03-31T08:29:11;19.00;69.50
25906;DHT22;13713;52.552;13.204;2023-03-31T08:31:37;19.00;69.40
25906;DHT22;13713;52.552;13.204;2023-03-31T08:34:04;19.00;69.50
25906;DHT22;13713;52.552;13.204;2023-03-31T08:36:30;19.00;69.50
25906;DHT22;13713;52.552;13.204;2023-03-31T08:38:55;19.00;69.50
25906;DHT22;13713;52.552;13.204;2023-03-31T08:41:52;19.10;69.60
25906;DHT22;13713;52.552;13.204;2023-03-31T08:44:41;19.00;69.50
25906;DHT22;13713;52.552;13.204;2023-03-31T08:47:17;19.00;69.50
25906;DHT22;13713;52.552;13.204;2023-03-31T08:49:54;19.00;69.50
25906;DHT22;13713;52.552;13.204;2023-03-31T08:52:30;19.00;69.60
25906;DHT22;13713;52.552;13.204;2023-03-31T08:55:03;19.00;69.60
25906;DHT22;13713;52.552;13.204;2023-03-31T08:57:39;19.00;69.80
25906;DHT22;13713;52.552;13.204;2023-03-31T09:00:14;19.00;69.80
25906;DHT22;13713;52.552;13.204;2023-03-31T09:03:16;19.00;69.80
25906;DHT22;13713;52.552;13.204;2023-03-31T09:08:32;19.00;69.90
25906;DHT22;13713;52.552;13.204;2023-03-31T09:11:40;19.10;70.10
25906;DHT22;13713;52.552;13.204;2023-03-31T09:14:12;19.10;70.10
25906;DHT22;13713;52.552;13.204;2023-03-31T09:19:48;19.10;70.00
25906;DHT22;13713;52.552;13.204;2023-03-31T09:22:30;19.00;70.00
25906;DHT22;13713;52.552;13.204;2023-03-31T09:25:22;19.00;70.10
25906;DHT22;13713;52.552;13.204;2023-03-31T09:27:51;19.10;70.30
25906;DHT22;13713;52.552;13.204;2023-03-31T09:33:01;19.10;70.30
25906;DHT22;13713;52.552;13.204;2023-03-31T09:35:29;19.00;70.30
25906;DHT22;13713;52.552;13.204;2023-03-31T09:37:58;19.00;70.30
25906;DHT22;13713;52.552;13.204;2023-03-31T09:40:26;19.00;70.50
25906;DHT22;13713;52.552;13.204;2023-03-31T09:43:07;19.00;69.90
25906;DHT22;13713;52.552;13.204;2023-03-31T09:45:34;19.00;69.40
25906;DHT22;13713;52.552;13.204;2023-03-31T09:48:04;18.90;69.10
25906;DHT22;13713;52.552;13.204;2023-03-31T09:50:37;18.90;69.10
25906;DHT22;13713;52.552;13.204;2023-03-31T09:53:13;18.90;69.00
25906;DHT22;13713;52.552;13.204;2023-03-31T09:55:44;18.90;68.60
25906;DHT22;13713;52.552;13.204;2023-03-31T09:58:15;18.80;68.50
25906;DHT22;13713;52.552;13.204;2023-03-31T10:00:43;18.80;68.50
25906;DHT22;13713;52.552;13.204;2023-03-31T10:03:22;18.80;68.30
25906;DHT22;13713;52.552;13.204;2023-03-31T10:05:54;18.70;68.20
25906;DHT22;13713;52.552;13.204;2023-03-31T10:10:50;18.70;68.00
25906;DHT22;13713;52.552;13.204;2023-03-31T10:13:19;18.70;67.90
25906;DHT22;13713;52.552;13.204;2023-03-31T10:15:45;18.70;67.80
25906;DHT22;13713;52.552;13.204;2023-03-31T10:18:16;18.60;67.80
25906;DHT22;13713;52.552;13.204;2023-03-31T10:20:50;18.60;67.60
25906;DHT22;13713;52.552;13.204;2023-03-31T10:23:29;18.60;67.60
25906;DHT22;13713;52.552;13.204;2023-03-31T10:25:55;18.50;67.60
25906;DHT22;13713;52.552;13.204;2023-03-31T10:28:22;18.60;67.70
25906;DHT22;13713;52.552;13.204;2023-03-31T10:30:53;18.50;67.60
25906;DHT22;13713;52.552;13.204;2023-03-31T10:33:25;18.60;67.90
25906;DHT22;13713;52.552;13.204;2023-03-31T10:35:58;18.50;67.90
25906;DHT22;13713;52.552;13.204;2023-03-31T10:38:30;18.50;68.00
25906;DHT22;13713;52.552;13.204;2023-03-31T10:40:58;18.50;68.20
25906;DHT22;13713;52.552;13.204;2023-03-31T10:43:34;18.40;68.20
25906;DHT22;13713;52.552;13.204;2023-03-31T10:46:01;18.40;68.20
25906;DHT22;13713;52.552;13.204;2023-03-31T10:48:36;18.40;68.40
25906;DHT22;13713;52.552;13.204;2023-03-31T10:51:05;18.40;68.50
25906;DHT22;13713;52.552;13.204;2023-03-31T10:53:43;18.40;68.60
25906;DHT22;13713;52.552;13.204;2023-03-31T11:09:58;18.40;68.90
25906;DHT22;13713;52.552;13.204;2023-03-31T11:12:39;18.30;68.80
25906;DHT22;13713;52.552;13.204;2023-03-31T11:15:29;18.30;68.80
25906;DHT22;13713;52.552;13.204;2023-03-31T11:20:26;18.40;69.10
25906;DHT22;13713;52.552;13.204;2023-03-31T11:23:00;18.40;69.20
25906;DHT22;13713;52.552;13.204;2023-03-31T11:25:43;18.40;69.10
25906;DHT22;13713;52.552;13.204;2023-03-31T11:28:37;18.40;69.20
25906;DHT22;13713;52.552;13.204;2023-03-31T11:31:13;18.40;69.30
25906;DHT22;13713;52.552;13.204;2023-03-31T11:34:03;18.40;69.30
25906;DHT22;13713;52.552;13.204;2023-03-31T11:36:42;18.40;69.30
25906;DHT22;13713;52.552;13.204;2023-03-31T11:42:26;18.40;69.30
25906;DHT22;13713;52.552;13.204;2023-03-31T11:44:59;18.40;69.30
25906;DHT22;13713;52.552;13.204;2023-03-31T11:47:31;18.40;69.50
25906;DHT22;13713;52.552;13.204;2023-03-31T11:50:03;18.40;69.60
25906;DHT22;13713;52.552;13.204;2023-03-31T11:52:34;18.40;69.50
25906;DHT22;13713;52.552;13.204;2023-03-31T11:55:18;18.30;69.40
25906;DHT22;13713;52.552;13.204;2023-03-31T11:58:11;18.30;69.40
25906;DHT22;13713;52.552;13.204;2023-03-31T12:06:16;18.30;69.50
25906;DHT22;13713;52.552;13.204;2023-03-31T12:12:00;18.30;69.80
25906;DHT22;13713;52.552;13.204;2023-03-31T12:14:30;18.30;69.90
25906;DHT22;13713;52.552;13.204;2023-03-31T12:17:11;18.30;69.90
25906;DHT22;13713;52.552;13.204;2023-03-31T12:19:49;18.30;70.00
25906;DHT22;13713;52.552;13.204;2023-03-31T12:22:28;18.30;70.10
25906;DHT22;13713;52.552;13.204;2023-03-31T12:24:57;18.30;70.10
25906;DHT22;13713;52.552;13.204;2023-03-31T12:27:24;18.20;70.20
25906;DHT22;13713;52.552;13.204;2023-03-31T12:30:05;18.20;70.30
25906;DHT22;13713;52.552;13.204;2023-03-31T12:32:55;18.20;70.30
25906;DHT22;13713;52.552;13.204;2023-03-31T12:41:06;18.20;70.50
25906;DHT22;13713;52.552;13.204;2023-03-31T12:47:06;18.20;70.60
25906;DHT22;13713;52.552;13.204;2023-03-31T12:52:07;18.10;70.60
25906;DHT22;13713;52.552;13.204;2023-03-31T12:57:30;18.10;71.20
25906;DHT22;13713;52.552;13.204;2023-03-31T13:00:20;18.10;70.80
25906;DHT22;13713;52.552;13.204;2023-03-31T13:02:48;18.10;70.80
25906;DHT22;13713;52.552;13.204;2023-03-31T13:08:06;18.10;71.00
25906;DHT22;13713;52.552;13.204;2023-03-31T13:10:50;18.10;70.90
25906;DHT22;13713;52.552;13.204;2023-03-31T13:13:16;18.10;71.00
25906;DHT22;13713;52.552;13.204;2023-03-31T13:16:02;18.10;70.80
25906;DHT22;13713;52.552;13.204;2023-03-31T13:18:31;18.10;70.80
25906;DHT22;13713;52.552;13.204;2023-03-31T13:21:07;18.10;70.90
25906;DHT22;13713;52.552;13.204;2023-03-31T13:23:34;18.00;70.90
25906;DHT22;13713;52.552;13.204;2023-03-31T13:26:02;18.00;71.10
25906;DHT22;13713;52.552;13.204;2023-03-31T13:28:39;18.00;71.10
25906;DHT22;13713;52.552;13.204;2023-03-31T13:31:11;18.00;71.20
25906;DHT22;13713;52.552;13.204;2023-03-31T13:33:41;18.00;71.30
25906;DHT22;13713;52.552;13.204;2023-03-31T13:38:49;18.00;71.30
25906;DHT22;13713;52.552;13.204;2023-03-31T13:41:41;17.90;71.30
25906;DHT22;13713;52.552;13.204;2023-03-31T13:55:37;17.80;71.70
25906;DHT22;13713;52.552;13.204;2023-03-31T13:58:13;17.80;71.70
25906;DHT22;13713;52.552;13.204;2023-03-31T14:05:55;17.70;71.70
25906;DHT22;13713;52.552;13.204;2023-03-31T14:11:21;17.80;71.70
25906;DHT22;13713;52.552;13.204;2023-03-31T14:16:58;17.80;71.70
25906;DHT22;13713;52.552;13.204;2023-03-31T14:30:33;17.80;71.80
25906;DHT22;13713;52.552;13.204;2023-03-31T14:35:59;17.80;71.90
25906;DHT22;13713;52.552;13.204;2023-03-31T14:38:29;17.80;71.90
25906;DHT22;13713;52.552;13.204;2023-03-31T14:40:56;17.80;71.90
25906;DHT22;13713;52.552;13.204;2023-03-31T14:43:38;17.80;71.90
25906;DHT22;13713;52.552;13.204;2023-03-31T14:46:08;17.80;72.00
25906;DHT22;13713;52.552;13.204;2023-03-31T14:48:45;17.90;72.00
25906;DHT22;13713;52.552;13.204;2023-03-31T14:51:14;17.80;72.00
25906;DHT22;13713;52.552;13.204;2023-03-31T14:53:41;17.80;72.10
25906;DHT22;13713;52.552;13.204;2023-03-31T14:56:16;17.80;72.10
25906;DHT22;13713;52.552;13.204;2023-03-31T14:58:48;17.80;72.10
25906;DHT22;13713;52.552;13.204;2023-03-31T15:01:24;17.80;72.10
25906;DHT22;13713;52.552;13.204;2023-03-31T15:03:52;17.80;72.20
25906;DHT22;13713;52.552;13.204;2023-03-31T15:06:18;17.80;72.20
25906;DHT22;13713;52.552;13.204;2023-03-31T15:08:44;17.80;72.20
25906;DHT22;13713;52.552;13.204;2023-03-31T15:11:15;17.80;72.20
25906;DHT22;13713;52.552;13.204;2023-03-31T15:13:51;17.80;72.20
25906;DHT22;13713;52.552;13.204;2023-03-31T15:18:54;17.80;72.30
25906;DHT22;13713;52.552;13.204;2023-03-31T15:21:23;17.80;72.20
25906;DHT22;13713;52.552;13.204;2023-03-31T15:23:54;17.80;72.30
25906;DHT22;13713;52.552;13.204;2023-03-31T15:26:28;17.80;72.30
25906;DHT22;13713;52.552;13.204;2023-03-31T15:29:00;17.80;72.30
25906;DHT22;13713;52.552;13.204;2023-03-31T15:31:27;17.80;72.30
25906;DHT22;13713;52.552;13.204;2023-03-31T15:33:55;17.80;72.30
25906;DHT22;13713;52.552;13.204;2023-03-31T15:36:21;17.80;72.30
25906;DHT22;13713;52.552;13.204;2023-03-31T15:38:55;17.70;72.30
25906;DHT22;13713;52.552;13.204;2023-03-31T15:41:22;17.80;72.30
25906;DHT22;13713;52.552;13.204;2023-03-31T15:47:06;17.80;72.30
25906;DHT22;13713;52.552;13.204;2023-03-31T15:49:33;17.80;72.30
25906;DHT22;13713;52.552;13.204;2023-03-31T15:51:59;17.80;72.30
25906;DHT22;13713;52.552;13.204;2023-03-31T15:54:38;17.80;72.40
25906;DHT22;13713;52.552;13.204;2023-03-31T15:57:07;17.80;73.20
25906;DHT22;13713;52.552;13.204;2023-03-31T15:59:47;17.80;72.40
25906;DHT22;13713;52.552;13.204;2023-03-31T16:02:21;17.80;72.40
25906;DHT22;13713;52.552;13.204;2023-03-31T16:04:48;17.80;72.40
25906;DHT22;13713;52.552;13.204;2023-03-31T16:07:22;17.80;72.40
25906;DHT22;13713;52.552;13.204;2023-03-31T16:12:39;17.80;72.50
25906;DHT22;13713;52.552;13.204;2023-03-31T16:15:16;17.80;72.50
25906;DHT22;13713;52.552;13.204;2023-03-31T16:17:49;17.80;72.40
25906;DHT22;13713;52.552;13.204;2023-03-31T16:22:55;17.70;72.40
25906;DHT22;13713;52.552;13.204;2023-03-31T16:25:25;17.80;72.40
25906;DHT22;13713;52.552;13.204;2023-03-31T16:27:54;17.80;72.50
25906;DHT22;13713;52.552;13.204;2023-03-31T16:30:32;17.80;72.50
25906;DHT22;13713;52.552;13.204;2023-03-31T16:32:59;17.80;72.50
25906;DHT22;13713;52.552;13.204;2023-03-31T16:35:30;17.80;72.50
25906;DHT22;13713;52.552;13.204;2023-03-31T16:37:57;17.80;72.50
25906;DHT22;13713;52.552;13.204;2023-03-31T16:40:23;17.70;72.50
25906;DHT22;13713;52.552;13.204;2023-03-31T16:43:15;17.80;72.50
25906;DHT22;13713;52.552;13.204;2023-03-31T16:45:51;17.80;72.50
25906;DHT22;13713;52.552;13.204;2023-03-31T16:48:19;17.80;72.50
25906;DHT22;13713;52.552;13.204;2023-03-31T16:50:47;17.80;72.60
25906;DHT22;13713;52.552;13.204;2023-03-31T16:53:16;17.70;72.50
25906;DHT22;13713;52.552;13.204;2023-03-31T16:55:43;17.70;72.50
25906;DHT22;13713;52.552;13.204;2023-03-31T16:58:09;17.80;72.50
25906;DHT22;13713;52.552;13.204;2023-03-31T17:00:36;17.80;72.50
25906;DHT22;13713;52.552;13.204;2023-03-31T17:03:05;17.70;72.60
25906;DHT22;13713;52.552;13.204;2023-03-31T17:05:32;17.70;72.50
25906;DHT22;13713;52.552;13.204;2023-03-31T17:08:02;17.70;72.50
25906;DHT22;13713;52.552;13.204;2023-03-31T17:10:27;17.70;72.60
25906;DHT22;13713;52.552;13.204;2023-03-31T17:12:53;17.70;72.60
25906;DHT22;13713;52.552;13.204;2023-03-31T17:15:19;17.60;72.50
25906;DHT22;13713;52.552;13.204;2023-03-31T17:17:45;17.70;72.60
25906;DHT22;13713;52.552;13.204;2023-03-31T17:20:10;17.70;72.60
25906;DHT22;13713;52.552;13.204;2023-03-31T17:22:36;17.70;72.60
25906;DHT22;13713;52.552;13.204;2023-03-31T17:25:03;17.70;72.60
25906;DHT22;13713;52.552;13.204;2023-03-31T17:27:29;17.70;72.60
25906;DHT22;13713;52.552;13.204;2023-03-31T17:29:55;17.70;72.60
25906;DHT22;13713;52.552;13.204;2023-03-31T17:32:22;17.70;72.60
25906;DHT22;13713;52.552;13.204;2023-03-31T17:34:47;17.70;72.70
25906;DHT22;13713;52.552;13.204;2023-03-31T17:37:14;17.70;72.70
25906;DHT22;13713;52.552;13.204;2023-03-31T17:39:41;17.70;72.70
25906;DHT22;13713;52.552;13.204;2023-03-31T17:42:08;17.70;72.70
25906;DHT22;13713;52.552;13.204;2023-03-31T17:44:33;17.60;72.60
25906;DHT22;13713;52.552;13.204;2023-03-31T17:46:59;17.70;72.70
25906;DHT22;13713;52.552;13.204;2023-03-31T17:49:25;17.70;72.70
25906;DHT22;13713;52.552;13.204;2023-03-31T17:51:51;17.70;72.70
25906;DHT22;13713;52.552;13.204;2023-03-31T17:54:18;17.70;72.70
25906;DHT22;13713;52.552;13.204;2023-03-31T17:56:43;17.70;72.70
25906;DHT22;13713;52.552;13.204;2023-03-31T17:59:10;17.70;72.70
25906;DHT22;13713;52.552;13.204;2023-03-31T18:01:36;17.70;72.80
25906;DHT22;13713;52.552;13.204;2023-03-31T18:04:02;17.60;72.70
25906;DHT22;13713;52.552;13.204;2023-03-31T18:06:28;17.60;72.70
25906;DHT22;13713;52.552;13.204;2023-03-31T18:08:55;17.60;72.70